Time;durP1;ratioP1;P1;durP2;ratioP2;P2;SDS_P1;SDS_P2;PMS_P1;PMS_P2;Temp;Humidity;BMP_temperature;BMP_pressure;BME280_temperature;BME280_humidity;BME280_pressure;Samples;Min_cycle;Max_cycle;Signal;HPM_P1;HPM_P2
2022/08/30 00:01:05;;;;;;;4.93;2.15;;;18.30;72.20;;;;;;5116675;28;20027;-38
2022/08/30 00:03:39;;;;;;;5.28;2.45;;;18.30;72.30;;;;;;5116634;28;20479;-38
2022/08/30 00:06:06;;;;;;;4.32;1.95;;;18.30;72.30;;;;;;5116657;28;20436;-38
2022/08/30 00:08:32;;;;;;;3.75;2.20;;;18.30;72.20;;;;;;5116711;28;20066;-44
2022/08/30 00:10:58;;;;;;;4.95;2.05;;;18.30;72.10;;;;;;5114864;28;20056;-39
2022/08/30 00:13:24;;;;;;;3.53;2.08;;;18.30;72.10;;;;;;5116217;28;20031;-38
2022/08/30 00:15:50;;;;;;;6.00;2.70;;;18.30;72.10;;;;;;5116413;28;20376;-38
2022/08/30 00:18:17;;;;;;;4.35;2.10;;;18.30;72.20;;;;;;5116406;28;20027;-43
2022/08/30 00:20:44;;;;;;;1.85;1.70;;;18.30;72.30;;;;;;5115818;28;20027;-38
2022/08/30 00:23:10;;;;;;;3.97;2.00;;;18.20;72.50;;;;;;5116079;28;20035;-38
2022/08/30 00:25:36;;;;;;;4.72;2.13;;;18.20;72.70;;;;;;5115968;28;20024;-38
2022/08/30 00:28:02;;;;;;;3.20;2.35;;;18.10;72.80;;;;;;5115874;28;20085;-38
2022/08/30 00:30:27;;;;;;;6.00;2.40;;;18.10;72.90;;;;;;5115979;28;20478;-38
2022/08/30 00:32:53;;;;;;;4.30;2.17;;;18.10;73.00;;;;;;5115777;28;20012;-38
2022/08/30 00:35:20;;;;;;;5.13;2.00;;;18.10;72.90;;;;;;5115918;28;20460;-39
2022/08/30 00:37:46;;;;;;;2.45;1.98;;;18.10;73.00;;;;;;5115580;28;20072;-38
2022/08/30 00:40:16;;;;;;;1.88;1.77;;;18.00;73.20;;;;;;5115628;28;20055;-38
2022/08/30 00:42:43;;;;;;;3.88;1.90;;;18.10;73.10;;;;;;5114161;28;20093;-39
2022/08/30 00:45:17;;;;;;;5.07;2.25;;;18.00;73.10;;;;;;5115398;28;20052;-39
2022/08/30 00:47:43;;;;;;;8.85;2.00;;;18.00;73.20;;;;;;5115714;28;20034;-38
2022/08/30 00:50:11;;;;;;;3.53;2.63;;;18.00;73.20;;;;;;5115813;28;20031;-38
2022/08/30 00:52:40;;;;;;;2.55;2.35;;;18.00;73.10;;;;;;5115673;28;20024;-38
2022/08/30 00:55:06;;;;;;;5.57;1.88;;;18.00;73.20;;;;;;5115763;28;20031;-38
2022/08/30 00:57:34;;;;;;;1.80;1.67;;;18.10;73.20;;;;;;5115402;28;20042;-40
2022/08/30 01:00:01;;;;;;;6.38;2.30;;;18.00;73.30;;;;;;5115168;28;20023;-38
2022/08/30 01:02:32;;;;;;;2.28;1.83;;;18.00;73.20;;;;;;5115818;28;20375;-38
2022/08/30 01:05:00;;;;;;;5.07;3.38;;;18.00;73.20;;;;;;5115298;28;20451;-38
2022/08/30 01:07:26;;;;;;;6.93;2.33;;;18.10;73.20;;;;;;5115616;28;20020;-37
2022/08/30 01:09:52;;;;;;;9.48;2.17;;;18.00;73.30;;;;;;5115472;28;20432;-39
2022/08/30 01:12:17;;;;;;;2.38;1.90;;;18.10;73.20;;;;;;5115158;28;20467;-38
2022/08/30 01:14:44;;;;;;;2.17;1.98;;;18.00;73.20;;;;;;5114875;28;20024;-37
2022/08/30 01:17:10;;;;;;;4.55;2.38;;;18.00;73.20;;;;;;5115077;28;20024;-38
2022/08/30 01:19:57;;;;;;;3.88;2.28;;;18.00;73.10;;;;;;5115098;28;20122;-37
2022/08/30 01:22:36;;;;;;;3.30;1.83;;;18.00;73.30;;;;;;5114923;28;20024;-38
2022/08/30 01:25:03;;;;;;;3.83;2.33;;;17.90;73.40;;;;;;5114864;28;20058;-38
2022/08/30 01:27:31;;;;;;;2.10;1.85;;;17.90;73.50;;;;;;5114473;28;20034;-38
2022/08/30 01:29:57;;;;;;;2.45;2.08;;;17.80;73.70;;;;;;5114555;28;20024;-38
2022/08/30 01:32:27;;;;;;;5.68;1.90;;;17.80;73.80;;;;;;5115229;28;20031;-38
2022/08/30 01:34:54;;;;;;;3.75;2.63;;;17.80;73.90;;;;;;5115161;28;20508;-37
2022/08/30 01:37:27;;;;;;;1.98;1.77;;;17.80;74.20;;;;;;5115030;28;20032;-41
2022/08/30 01:39:53;;;;;;;2.80;2.17;;;17.70;74.40;;;;;;5096533;28;20479;-39
2022/08/30 01:42:19;;;;;;;3.03;2.22;;;17.60;74.60;;;;;;5114821;28;20024;-38
2022/08/30 01:44:46;;;;;;;3.83;2.78;;;17.50;74.70;;;;;;5112833;28;20411;-37
2022/08/30 01:47:12;;;;;;;2.47;2.28;;;17.60;74.70;;;;;;5114391;28;20107;-38
2022/08/30 01:49:39;;;;;;;2.67;1.75;;;17.60;74.80;;;;;;5114396;28;20031;-38
2022/08/30 01:52:05;;;;;;;7.93;2.22;;;17.60;74.70;;;;;;5114471;28;20047;-38
2022/08/30 01:54:33;;;;;;;4.30;2.20;;;17.60;74.80;;;;;;5113712;28;20020;-38
2022/08/30 01:56:59;;;;;;;2.17;1.65;;;17.50;75.00;;;;;;5114135;28;20111;-39
2022/08/30 01:59:24;;;;;;;3.85;2.13;;;17.50;75.10;;;;;;5114103;28;20480;-38
2022/08/30 02:01:51;;;;;;;3.42;1.70;;;17.50;75.20;;;;;;5114048;28;20038;-38
2022/08/30 02:04:16;;;;;;;3.92;2.40;;;17.50;75.20;;;;;;5113872;28;20072;-39
2022/08/30 02:06:43;;;;;;;4.95;2.28;;;17.50;75.20;;;;;;5112442;28;20027;-38
2022/08/30 02:09:10;;;;;;;3.17;2.38;;;17.40;75.30;;;;;;5113692;28;20030;-38
2022/08/30 02:11:36;;;;;;;3.03;2.35;;;17.40;75.50;;;;;;5114087;28;20024;-38
2022/08/30 02:14:01;;;;;;;4.15;2.03;;;17.30;75.60;;;;;;5113808;28;20394;-39
2022/08/30 02:16:27;;;;;;;4.45;2.83;;;17.30;75.80;;;;;;5112417;28;20019;-39
2022/08/30 02:18:53;;;;;;;2.50;2.30;;;17.30;75.80;;;;;;5112330;28;20417;-39
2022/08/30 02:21:20;;;;;;;3.00;2.28;;;17.30;75.70;;;;;;5113957;28;20027;-38
2022/08/30 02:23:45;;;;;;;3.38;2.15;;;17.40;75.70;;;;;;5113583;28;20357;-38
2022/08/30 02:26:12;;;;;;;2.42;2.03;;;17.40;75.50;;;;;;5113773;28;20027;-38
2022/08/30 02:28:38;;;;;;;2.35;2.15;;;17.40;75.60;;;;;;5113481;28;20502;-38
2022/08/30 02:31:03;;;;;;;3.75;2.63;;;17.30;75.70;;;;;;5113507;28;20024;-39
2022/08/30 02:33:30;;;;;;;2.58;2.17;;;17.30;76.00;;;;;;5113971;28;20383;-39
2022/08/30 02:35:56;;;;;;;4.78;2.03;;;17.20;76.30;;;;;;5113483;28;20032;-38
2022/08/30 02:38:23;;;;;;;4.93;2.28;;;17.10;76.50;;;;;;5113239;28;20489;-38
2022/08/30 02:40:49;;;;;;;3.05;2.83;;;17.00;76.80;;;;;;5113479;28;20023;-38
2022/08/30 02:43:15;;;;;;;4.85;2.58;;;17.00;77.00;;;;;;5113346;28;20093;-37
2022/08/30 02:45:41;;;;;;;3.28;2.67;;;16.90;77.00;;;;;;5112909;28;20433;-37
2022/08/30 02:48:08;;;;;;;3.53;2.55;;;16.90;77.10;;;;;;5113089;28;20024;-38
2022/08/30 02:50:33;;;;;;;4.20;2.53;;;16.90;77.20;;;;;;5113260;28;20027;-39
2022/08/30 02:52:59;;;;;;;4.10;2.80;;;16.90;77.30;;;;;;5113074;28;20020;-38
2022/08/30 02:55:25;;;;;;;5.18;2.75;;;16.90;77.20;;;;;;5113223;28;20031;-38
2022/08/30 02:57:50;;;;;;;8.35;2.92;;;16.90;77.20;;;;;;5113077;28;20016;-38
2022/08/30 03:00:19;;;;;;;2.60;2.40;;;16.80;77.50;;;;;;5112991;28;20023;-38
2022/08/30 03:02:45;;;;;;;2.78;2.40;;;16.80;77.60;;;;;;5113298;28;20058;-38
2022/08/30 03:05:13;;;;;;;3.88;3.28;;;16.80;77.80;;;;;;5113790;28;20382;-39
2022/08/30 03:07:40;;;;;;;17.45;5.68;;;16.80;78.00;;;;;;5117217;28;20023;-39
2022/08/30 03:10:06;;;;;;;4.07;2.72;;;16.70;78.10;;;;;;5117270;28;20059;-37
2022/08/30 03:12:32;;;;;;;4.93;2.95;;;16.60;78.30;;;;;;5116811;28;20447;-38
2022/08/30 03:14:58;;;;;;;3.40;2.58;;;16.70;78.20;;;;;;5117127;28;20024;-44
2022/08/30 03:17:24;;;;;;;8.88;3.10;;;16.60;78.30;;;;;;5115473;28;20137;-38
2022/08/30 03:19:50;;;;;;;4.00;2.90;;;16.50;78.60;;;;;;5117083;28;20027;-38
2022/08/30 03:22:16;;;;;;;4.03;2.88;;;16.50;78.70;;;;;;5117030;28;20321;-38
2022/08/30 03:24:42;;;;;;;2.80;2.60;;;16.50;78.80;;;;;;5117118;28;20027;-38
2022/08/30 03:27:07;;;;;;;3.97;2.70;;;16.50;78.90;;;;;;5116841;28;20020;-38
2022/08/30 03:29:34;;;;;;;3.03;2.63;;;16.40;79.10;;;;;;5117104;28;20016;-39
2022/08/30 03:31:59;;;;;;;3.15;2.85;;;16.40;79.30;;;;;;5117012;28;20378;-38
2022/08/30 03:34:25;;;;;;;5.70;2.67;;;16.30;79.50;;;;;;5115512;28;20102;-38
2022/08/30 03:36:53;;;;;;;3.30;2.78;;;16.30;79.60;;;;;;5116965;28;20031;-40
2022/08/30 03:39:20;;;;;;;6.53;3.20;;;16.30;79.70;;;;;;5116714;28;20442;-39
2022/08/30 03:41:46;;;;;;;8.30;3.15;;;16.30;79.80;;;;;;5116692;28;20131;-38
2022/08/30 03:44:12;;;;;;;3.25;2.90;;;16.30;79.90;;;;;;5116724;28;20122;-38
2022/08/30 03:46:38;;;;;;;3.35;3.05;;;16.30;80.10;;;;;;5116991;28;20046;-39
2022/08/30 03:49:04;;;;;;;4.50;4.10;;;16.20;80.10;;;;;;5116586;28;20035;-39
2022/08/30 03:51:30;;;;;;;3.50;3.05;;;16.20;80.10;;;;;;5116802;28;20028;-38
2022/08/30 03:53:56;;;;;;;4.15;3.75;;;16.30;80.10;;;;;;5116427;28;20084;-38
2022/08/30 03:56:23;;;;;;;5.13;3.50;;;16.30;80.10;;;;;;5116633;28;20035;-39
2022/08/30 03:58:49;;;;;;;3.25;2.95;;;16.30;80.00;;;;;;5115052;28;20015;-39
2022/08/30 04:01:14;;;;;;;4.22;3.38;;;16.30;79.80;;;;;;5116570;28;20023;-38
2022/08/30 04:03:40;;;;;;;8.27;3.30;;;16.30;79.90;;;;;;5116533;28;20130;-39
2022/08/30 04:06:05;;;;;;;4.75;2.95;;;16.30;80.00;;;;;;5116347;28;20028;-38
2022/08/30 04:08:31;;;;;;;3.65;3.10;;;16.30;79.80;;;;;;5116528;28;20034;-38
2022/08/30 04:10:57;;;;;;;3.47;3.17;;;16.30;80.00;;;;;;5116490;28;20024;-38
2022/08/30 04:13:24;;;;;;;6.70;3.38;;;16.20;80.30;;;;;;5116422;28;20016;-38
2022/08/30 04:15:49;;;;;;;4.22;3.78;;;16.30;80.40;;;;;;5115214;28;20024;-38
2022/08/30 04:18:16;;;;;;;6.20;3.33;;;16.20;80.50;;;;;;5115513;28;20032;-38
2022/08/30 04:20:42;;;;;;;3.92;3.55;;;16.20;80.50;;;;;;5116185;28;20482;-38
2022/08/30 04:23:08;;;;;;;5.88;4.50;;;16.30;80.50;;;;;;5115897;28;20475;-37
2022/08/30 04:25:36;;;;;;;4.25;3.35;;;16.20;80.50;;;;;;5115948;28;20080;-38
2022/08/30 18:41:18;;;;;;;1.58;1.45;;;22.00;49.20;;;;;;4993437;28;20798;-46
2022/08/30 18:43:44;;;;;;;4.22;2.05;;;22.00;49.20;;;;;;4994452;28;20109;-50
2022/08/30 18:46:13;;;;;;;4.50;1.70;;;22.00;49.10;;;;;;4989386;28;20515;-50
2022/08/30 18:48:39;;;;;;;2.53;1.48;;;22.10;49.00;;;;;;4990918;28;20089;-47
2022/08/30 18:51:13;;;;;;;1.80;1.33;;;22.10;49.00;;;;;;4990756;28;20475;-47
2022/08/30 18:53:39;;;;;;;15.55;10.43;;;22.10;49.00;;;;;;4990625;28;20537;-47
2022/08/30 18:56:05;;;;;;;4.00;2.03;;;22.10;49.00;;;;;;4990720;28;20444;-47
2022/08/30 18:58:31;;;;;;;8.93;2.75;;;22.10;49.00;;;;;;4989248;28;20391;-47
2022/08/30 19:00:57;;;;;;;1.20;1.10;;;22.00;49.10;;;;;;4990417;28;20026;-47
2022/08/30 19:03:23;;;;;;;1.13;1.02;;;22.00;49.40;;;;;;4990321;28;20023;-48
2022/08/30 19:05:48;;;;;;;3.20;1.52;;;21.90;49.50;;;;;;4990845;28;20070;-47
2022/08/30 19:08:14;;;;;;;2.22;1.45;;;21.90;49.60;;;;;;4989339;28;20030;-48
2022/08/30 19:10:40;;;;;;;2.60;1.50;;;21.90;49.60;;;;;;4990364;28;20054;-50
2022/08/30 19:13:06;;;;;;;2.33;2.08;;;21.80;49.80;;;;;;4991277;28;20093;-47
2022/08/30 19:15:36;;;;;;;2.97;1.60;;;21.80;49.90;;;;;;4991460;28;20505;-46
2022/08/30 19:18:03;;;;;;;4.68;2.10;;;21.70;50.10;;;;;;4990997;28;20125;-46
2022/08/30 19:20:29;;;;;;;4.20;1.73;;;21.70;50.20;;;;;;4990496;28;20501;-47
2022/08/30 19:22:55;;;;;;;3.00;1.83;;;21.70;50.30;;;;;;4991329;28;20035;-47
2022/08/30 19:25:22;;;;;;;5.78;1.63;;;21.70;50.30;;;;;;4990586;28;20060;-46
2022/08/30 19:27:48;;;;;;;2.35;1.55;;;21.60;50.40;;;;;;4990863;28;20023;-46
2022/08/30 19:30:20;;;;;;;1.45;1.08;;;21.50;50.70;;;;;;4991615;28;20034;-47
2022/08/30 19:32:46;;;;;;;1.80;1.27;;;21.50;50.70;;;;;;4991017;28;20130;-48
2022/08/30 19:35:13;;;;;;;4.68;2.13;;;21.50;50.80;;;;;;4991243;28;20522;-47
2022/08/30 19:37:39;;;;;;;1.58;1.05;;;21.50;50.90;;;;;;4989614;28;20030;-47
2022/08/30 19:40:09;;;;;;;3.80;2.15;;;21.50;50.80;;;;;;5000765;28;20044;-46
2022/08/30 19:42:36;;;;;;;2.70;1.33;;;21.50;50.80;;;;;;5010018;28;20084;-47
2022/08/30 19:45:02;;;;;;;1.85;1.40;;;21.50;50.80;;;;;;5009778;28;20621;-48
2022/08/30 19:47:28;;;;;;;2.13;1.08;;;21.40;50.80;;;;;;5009724;28;20014;-46
2022/08/30 19:49:54;;;;;;;3.10;1.25;;;21.40;50.80;;;;;;5009778;28;20041;-54
2022/08/30 19:52:19;;;;;;;5.18;1.40;;;21.40;51.00;;;;;;4997818;28;20560;-47
2022/08/30 19:54:45;;;;;;;4.05;1.95;;;21.40;50.90;;;;;;4994740;28;20532;-47
2022/08/30 19:57:11;;;;;;;2.05;1.10;;;21.40;50.90;;;;;;4994997;28;20502;-48
2022/08/30 19:59:37;;;;;;;1.67;1.58;;;21.40;50.70;;;;;;4996340;28;20034;-48
2022/08/30 20:02:04;;;;;;;3.10;2.25;;;21.40;50.70;;;;;;4996472;28;20471;-46
2022/08/30 20:04:30;;;;;;;2.80;1.58;;;21.30;50.60;;;;;;4995826;28;20018;-46
2022/08/30 20:06:56;;;;;;;6.70;2.10;;;21.30;50.60;;;;;;4996140;28;20482;-46
2022/08/30 20:09:22;;;;;;;2.45;1.77;;;21.30;50.50;;;;;;4994666;28;20033;-46
2022/08/30 20:11:48;;;;;;;2.10;1.52;;;21.40;50.50;;;;;;4996095;28;20049;-49
2022/08/30 20:14:14;;;;;;;1.45;1.23;;;21.30;50.50;;;;;;4996074;28;20030;-47
2022/08/30 20:16:40;;;;;;;12.02;1.48;;;21.30;50.40;;;;;;4994782;28;20033;-46
2022/08/30 20:19:07;;;;;;;3.33;1.38;;;21.30;50.50;;;;;;4995685;28;20033;-47
2022/08/30 20:21:34;;;;;;;2.58;1.60;;;21.30;50.50;;;;;;4995867;28;20027;-49
2022/08/30 20:24:00;;;;;;;5.50;1.85;;;21.30;50.70;;;;;;4995700;28;20379;-47
2022/08/30 20:26:27;;;;;;;1.98;1.17;;;21.20;50.80;;;;;;4996070;28;20022;-47
2022/08/30 20:28:53;;;;;;;2.38;1.40;;;21.20;50.80;;;;;;4996100;28;20434;-47
2022/08/30 20:31:18;;;;;;;1.48;0.93;;;21.10;50.70;;;;;;4996036;28;20014;-48
2022/08/30 20:33:44;;;;;;;4.40;1.45;;;21.10;50.80;;;;;;4995775;28;20022;-47
2022/08/30 20:36:10;;;;;;;4.60;1.45;;;21.00;50.90;;;;;;4995442;28;20054;-47
2022/08/30 20:38:37;;;;;;;3.85;1.42;;;20.90;51.00;;;;;;4995703;28;20022;-47
2022/08/30 20:41:13;;;;;;;1.30;0.98;;;20.90;51.10;;;;;;4995195;28;20054;-47
2022/08/30 20:43:38;;;;;;;3.28;1.20;;;20.80;51.20;;;;;;4995925;28;20094;-47
2022/08/30 20:46:09;;;;;;;1.48;1.10;;;20.80;51.30;;;;;;4995676;28;20030;-48
2022/08/30 20:48:35;;;;;;;2.15;1.10;;;20.80;51.30;;;;;;4995678;28;20038;-48
2022/08/30 20:51:07;;;;;;;2.30;1.33;;;20.70;51.40;;;;;;4995787;28;20026;-48
2022/08/30 20:53:33;;;;;;;2.83;1.45;;;20.70;51.40;;;;;;4995288;28;20026;-46
2022/08/30 20:55:59;;;;;;;4.03;1.77;;;20.80;51.30;;;;;;4995218;28;20438;-51
2022/08/30 20:58:25;;;;;;;5.47;1.83;;;20.70;51.30;;;;;;4994193;28;20394;-48
2022/08/30 21:00:52;;;;;;;1.63;1.40;;;20.70;51.30;;;;;;4994318;28;20037;-46
2022/08/30 21:03:18;;;;;;;2.35;1.80;;;20.70;51.30;;;;;;4994525;28;20028;-46
2022/08/30 21:05:43;;;;;;;4.82;1.23;;;20.70;51.20;;;;;;4995695;28;20109;-48
2022/08/30 21:08:09;;;;;;;2.70;1.67;;;20.70;51.30;;;;;;4995732;28;20022;-49
2022/08/30 21:10:35;;;;;;;3.47;1.63;;;20.60;51.20;;;;;;4996209;28;20476;-48
2022/08/30 21:13:00;;;;;;;1.23;1.00;;;20.50;51.50;;;;;;4994473;28;20026;-48
2022/08/30 21:15:26;;;;;;;3.00;1.42;;;20.50;51.60;;;;;;4995787;28;20030;-48
2022/08/30 21:17:52;;;;;;;4.03;1.40;;;20.40;51.80;;;;;;4995945;28;20023;-46
2022/08/30 21:20:17;;;;;;;1.92;1.52;;;20.30;52.10;;;;;;4995161;28;20045;-49
2022/08/30 21:22:43;;;;;;;3.42;1.58;;;20.30;52.30;;;;;;4995323;28;20029;-46
2022/08/30 21:25:09;;;;;;;1.45;1.17;;;20.20;52.50;;;;;;4995160;28;20037;-46
2022/08/30 21:27:34;;;;;;;8.38;1.55;;;20.20;52.80;;;;;;4995721;28;20022;-47
2022/08/30 21:30:00;;;;;;;2.08;1.45;;;20.10;53.00;;;;;;4995296;28;20049;-48
2022/08/30 21:32:26;;;;;;;1.00;0.98;;;20.10;53.20;;;;;;4995614;28;20474;-50
2022/08/30 21:37:36;;;;;;;4.85;1.40;;;20.00;53.50;;;;;;4994623;28;20037;-47
2022/08/30 21:40:02;;;;;;;5.00;1.40;;;19.90;53.90;;;;;;4994401;28;20474;-46
2022/08/30 21:42:28;;;;;;;1.25;1.10;;;19.90;53.90;;;;;;4995310;28;20491;-47
2022/08/30 21:44:53;;;;;;;4.68;1.17;;;19.80;54.20;;;;;;4993489;28;20057;-47
2022/08/30 21:47:20;;;;;;;3.53;1.05;;;19.80;54.30;;;;;;4995143;28;20053;-47
2022/08/30 21:49:46;;;;;;;2.05;1.20;;;19.80;54.40;;;;;;4994732;28;20029;-46
2022/08/30 21:52:12;;;;;;;5.15;1.27;;;19.70;54.60;;;;;;4994571;28;20080;-46
2022/08/30 21:54:38;;;;;;;1.45;0.93;;;19.70;54.90;;;;;;4994778;28;20027;-46
2022/08/30 21:57:05;;;;;;;4.97;1.30;;;19.70;55.10;;;;;;4994649;28;20026;-48
2022/08/30 21:59:31;;;;;;;1.83;1.20;;;19.60;55.30;;;;;;4994498;28;20026;-48
2022/08/30 22:01:58;;;;;;;1.75;1.23;;;19.60;55.60;;;;;;4994293;28;20446;-48
2022/08/30 22:04:24;;;;;;;1.50;1.20;;;19.60;55.80;;;;;;4994197;28;20030;-46
2022/08/30 22:06:50;;;;;;;3.92;1.20;;;19.60;56.00;;;;;;4994558;28;20126;-46
2022/08/30 22:09:25;;;;;;;1.88;1.52;;;19.50;56.20;;;;;;4994140;28;20038;-47
2022/08/30 22:11:52;;;;;;;5.07;2.10;;;19.60;56.40;;;;;;4994141;28;20117;-47
2022/08/30 22:14:19;;;;;;;1.85;1.38;;;19.50;56.70;;;;;;4992780;28;20027;-46
2022/08/30 22:16:45;;;;;;;2.45;1.35;;;19.50;57.00;;;;;;4994305;28;20034;-47
2022/08/30 22:19:11;;;;;;;2.03;1.17;;;19.40;57.20;;;;;;4993913;28;20022;-46
2022/08/30 22:21:40;;;;;;;1.63;1.02;;;19.40;57.40;;;;;;4993960;28;20035;-46
2022/08/30 22:24:06;;;;;;;4.53;1.67;;;19.30;57.90;;;;;;4993835;28;20390;-45
2022/08/30 22:26:33;;;;;;;2.90;1.27;;;19.30;58.00;;;;;;4994033;28;20019;-46
2022/08/30 22:28:59;;;;;;;2.15;1.58;;;19.30;58.20;;;;;;4993840;28;20082;-49
2022/08/30 22:31:25;;;;;;;7.93;1.38;;;19.30;58.40;;;;;;4993779;28;20026;-46
2022/08/30 22:33:52;;;;;;;2.63;1.23;;;19.30;58.70;;;;;;4994035;28;20027;-49
2022/08/30 22:36:24;;;;;;;2.47;1.38;;;19.30;59.00;;;;;;4993968;28;20027;-47
2022/08/30 22:38:52;;;;;;;5.47;1.50;;;19.20;59.20;;;;;;4993855;28;20026;-47
2022/08/30 22:41:23;;;;;;;1.92;1.63;;;19.30;59.50;;;;;;4993865;28;20037;-46
2022/08/30 22:43:48;;;;;;;;;;;19.20;59.70;;;;;;4993996;28;20470;-46
2022/08/30 22:46:16;;;;;;;2.67;1.10;;;19.20;59.80;;;;;;4993942;28;19913;-46
2022/08/30 22:48:43;;;;;;;1.77;1.15;;;19.10;60.10;;;;;;4993600;28;20022;-46
2022/08/30 22:51:10;;;;;;;1.40;1.20;;;19.10;60.40;;;;;;4993668;28;20018;-48
2022/08/30 22:53:36;;;;;;;1.40;1.10;;;19.10;60.60;;;;;;4993561;28;20026;-49
2022/08/30 22:56:11;;;;;;;1.73;1.35;;;19.10;60.90;;;;;;4993677;28;20034;-47
2022/08/30 22:58:36;;;;;;;1.45;1.27;;;19.10;61.20;;;;;;4994370;28;20096;-46
2022/08/30 23:01:04;;;;;;;4.05;1.27;;;19.00;61.40;;;;;;4992131;28;20430;-45
2022/08/30 23:03:30;;;;;;;2.08;1.35;;;19.00;61.60;;;;;;4995709;28;20031;-51
2022/08/30 23:05:56;;;;;;;1.70;1.02;;;19.00;61.80;;;;;;4993780;28;20033;-47
2022/08/30 23:08:21;;;;;;;5.13;1.55;;;19.00;62.10;;;;;;4992376;28;20031;-46
2022/08/30 23:10:47;;;;;;;1.73;1.40;;;18.90;62.40;;;;;;4993260;28;20475;-46
2022/08/30 23:13:13;;;;;;;9.07;1.65;;;18.90;62.60;;;;;;4992144;28;20030;-47
2022/08/30 23:15:38;;;;;;;5.55;1.23;;;18.80;63.00;;;;;;4993355;28;20026;-47
2022/08/30 23:18:04;;;;;;;2.70;1.75;;;18.80;63.10;;;;;;4993648;28;20121;-46
2022/08/30 23:20:30;;;;;;;1.80;1.30;;;18.80;63.40;;;;;;4993513;28;20026;-47
